Nearby METAR Reports. Back to PWS.

 

EGNR - Hawarden (aut), United Kingdom
Distance from station: NNE 5mi, 8km
Updated: Thu, 01-Jan-1970 1:00am BST
NOT Current
unable to load EGNR data RC=404 Not Found
unable to load EGNR data RC=404 Not Found
 
EGGP - Liverpool Airpor, United Kingdom
Distance from station: NNE 17mi, 27km
Updated: Fri, 25-May-2018 11:20am BST
Rain, Partly cloudy
Rain, Partly cloudy
 Wind from NE
Wind: NE 10 mph , 17 km/h
Temperature: 61°F , 16°C
Dew Point: 55°F , 13°C
Humidity: 83%
Barometer: 30.12 inHg , 1020 hPa
Summary: Rain
Clouds: Partly Cloudy
Visibility: 6 miles , 10 km
Cloud details: Few Clouds 3300 ft
Partly Cloudy 4500 ft
2018/05/25 10:20 EGGP 251020Z 04009KT 9999 6000E RA FEW033 SCT045 16/13 Q1020
 
EGOS - Shawbury Raf, United Kingdom
Distance from station: SE 25mi, 41km
Updated: Fri, 25-May-2018 10:50am BST
Rain, Mostly cloudy
Rain, Mostly cloudy
 Wind from NNW
Wind: NNW 9 mph , 15 km/h
Temperature: 55°F , 13°C
Dew Point: 54°F , 12°C
Humidity: 94%
Barometer: 30.09 inHg , 1019 hPa
Summary: Rain
Clouds: Mostly Cloudy
Visibility: 3 miles , 5 km
Cloud details: Few Clouds 3000 ft
Mostly Cloudy 5000 ft
2018/05/25 09:50 EGOS 250950Z 34008KT 5000 RA FEW030 BKN050 13/12 Q1019 WHT NOSIG
EGCC - Manchester Intl, United Kingdom
Distance from station: ENE 36mi, 58km
Updated: Fri, 25-May-2018 11:20am BST
Light rain, Thunderstorm
Light rain, Thunderstorm
 Wind from NNE
Wind: NNE 14 mph , 22 km/h
Temperature: 55°F , 13°C
Dew Point: 52°F , 11°C
Humidity: 88%
Barometer: 30.12 inHg , 1020 hPa
Summary: Light Rain
Clouds: Thunderstorm
Visibility: 5 miles , 8 km
2018/05/25 10:20 EGCC 251020Z AUTO 03012KT 8000 -RA //////TCU 13/11 Q1020

Metar display script from Saratoga-Weather.org